Time;durP1;ratioP1;P1;durP2;ratioP2;P2;SDS_P1;SDS_P2;PMS_P1;PMS_P2;Temp;Humidity;BMP_temperature;BMP_pressure;BME280_temperature;BME280_humidity;BME280_pressure;Samples;Min_cycle;Max_cycle;Signal;HPM_P1;HPM_P2
2023/04/21 00:00:08;;;;;;;30.13;23.00;;;9.10;1.00;;;;;;5060776;28;20189;-83
2023/04/21 00:02:38;;;;;;;30.73;24.58;;;9.10;1.00;;;;;;5061725;28;20463;-82
2023/04/21 00:05:09;;;;;;;35.10;25.30;;;9.10;1.00;;;;;;5061326;28;21229;-83
2023/04/21 00:07:36;;;;;;;31.15;23.63;;;9.10;1.00;;;;;;5057924;28;20454;-82
2023/04/21 00:10:06;;;;;;;30.88;24.05;;;9.00;1.00;;;;;;5063915;28;20178;-83
2023/04/21 00:12:31;;;;;;;35.60;26.15;;;9.00;1.00;;;;;;5062063;28;20197;-82
2023/04/21 00:14:57;;;;;;;32.40;25.07;;;9.10;1.00;;;;;;5059614;28;20185;-83
2023/04/21 00:17:22;;;;;;;32.27;26.90;;;9.00;1.00;;;;;;5064693;28;20694;-83
2023/04/21 00:19:48;;;;;;;34.50;26.00;;;9.00;1.00;;;;;;5060860;28;20242;-83
2023/04/21 00:22:13;;;;;;;38.47;26.50;;;9.10;1.00;;;;;;5057729;28;20483;-81
2023/04/21 00:24:42;;;;;;;37.30;29.03;;;9.10;1.00;;;;;;5063925;28;20185;-82
2023/04/21 00:27:07;;;;;;;40.20;29.75;;;9.00;1.00;;;;;;5065851;28;20198;-82
2023/04/21 00:29:35;;;;;;;40.27;29.90;;;9.00;1.00;;;;;;5052934;28;20186;-82
2023/04/21 00:32:02;;;;;;;39.03;29.48;;;8.90;1.00;;;;;;5064559;28;20213;-82
2023/04/21 00:34:30;;;;;;;40.83;30.42;;;8.90;1.00;;;;;;5060285;28;20194;-83
2023/04/21 00:36:56;;;;;;;39.70;29.42;;;9.00;2.30;;;;;;5073180;28;20257;-83
2023/04/21 00:39:21;;;;;;;42.30;30.47;;;8.90;54.20;;;;;;5065736;28;20189;-82
2023/04/21 00:41:47;;;;;;;37.70;26.83;;;9.00;32.20;;;;;;5073588;28;20181;-82
2023/04/21 00:44:12;;;;;;;40.40;31.57;;;9.00;28.80;;;;;;5064756;28;20584;-82
2023/04/21 00:46:38;;;;;;;42.67;31.53;;;9.00;30.00;;;;;;5062500;28;20203;-84
2023/04/21 00:49:06;;;;;;;39.60;30.00;;;8.90;85.00;;;;;;5065312;28;20249;-83
2023/04/21 00:51:33;;;;;;;41.07;31.90;;;8.90;77.30;;;;;;5068188;28;20375;-83
2023/04/21 00:54:01;;;;;;;43.22;32.88;;;8.90;99.90;;;;;;5067699;28;20872;-82
2023/04/21 00:56:31;;;;;;;45.53;31.92;;;8.90;99.90;;;;;;5059904;28;20189;-82
2023/04/21 00:58:57;;;;;;;45.05;32.75;;;8.80;99.90;;;;;;5069845;28;20200;-83
2023/04/21 01:01:23;;;;;;;42.47;31.37;;;8.80;99.90;;;;;;5067898;28;20186;-82
2023/04/21 01:03:50;;;;;;;47.53;33.80;;;8.80;99.90;;;;;;5069328;28;20984;-82
2023/04/21 01:06:20;;;;;;;48.92;35.75;;;8.80;99.90;;;;;;5061505;28;20182;-83
2023/04/21 01:08:46;;;;;;;46.13;32.35;;;8.80;99.90;;;;;;5068822;28;20240;-83
2023/04/21 01:11:12;;;;;;;46.07;33.57;;;8.80;99.90;;;;;;5062447;28;20220;-82
2023/04/21 01:13:38;;;;;;;45.53;32.65;;;8.80;99.90;;;;;;5079250;28;20448;-82
2023/04/21 01:16:05;;;;;;;48.60;32.90;;;8.80;99.90;;;;;;5054452;28;20186;-82
2023/04/21 01:18:31;;;;;;;43.97;31.05;;;8.80;99.90;;;;;;5068264;28;20432;-82
2023/04/21 01:21:00;;;;;;;47.33;30.37;;;8.80;99.90;;;;;;5060564;28;20185;-83
2023/04/21 01:23:25;;;;;;;46.65;32.38;;;8.80;99.90;;;;;;5061064;28;20451;-83
2023/04/21 01:25:58;;;;;;;47.00;34.10;;;8.70;99.90;;;;;;5060359;28;20266;-82
2023/04/21 01:28:24;;;;;;;47.67;34.67;;;8.70;99.90;;;;;;5056890;28;20387;-83
2023/04/21 01:30:50;;;;;;;53.58;33.10;;;8.60;99.90;;;;;;5061313;28;21011;-83
2023/04/21 01:33:18;;;;;;;48.23;33.50;;;8.60;99.90;;;;;;5066103;28;20241;-82
2023/04/21 01:35:46;;;;;;;50.42;35.35;;;8.60;1.00;;;;;;5064839;28;20435;-82
2023/04/21 01:38:12;;;;;;;54.10;35.22;;;8.60;1.00;;;;;;5060909;28;20207;-81
2023/04/21 01:40:40;;;;;;;48.63;33.20;;;8.60;1.00;;;;;;5063960;28;20630;-82
2023/04/21 01:43:09;;;;;;;55.42;36.45;;;8.60;1.00;;;;;;5067230;28;20202;-84
2023/04/21 01:45:37;;;;;;;50.83;33.92;;;8.60;1.00;;;;;;5063123;28;20205;-83
2023/04/21 01:48:05;;;;;;;51.03;34.22;;;8.60;1.00;;;;;;5066399;28;20197;-82
2023/04/21 01:50:32;;;;;;;51.30;34.60;;;8.60;1.00;;;;;;5063102;28;20210;-82
2023/04/21 01:52:58;;;;;;;52.72;36.50;;;8.60;1.00;;;;;;5054806;28;20225;-82
2023/04/21 01:55:24;;;;;;;53.80;35.63;;;8.60;1.00;;;;;;5054337;28;20681;-82
2023/04/21 01:57:49;;;;;;;51.23;35.47;;;8.60;1.00;;;;;;5052904;28;20165;-82
2023/04/21 02:00:15;;;;;;;52.60;34.10;;;8.60;1.00;;;;;;5053136;28;20447;-83
2023/04/21 02:02:41;;;;;;;51.77;33.00;;;8.70;1.00;;;;;;5061108;28;20193;-82
2023/04/21 02:05:09;;;;;;;52.60;35.80;;;8.60;1.00;;;;;;5063043;28;20439;-83
2023/04/21 02:07:35;;;;;;;50.25;33.70;;;8.70;1.00;;;;;;5068183;28;20188;-82
2023/04/21 02:10:00;;;;;;;52.27;36.13;;;8.70;1.00;;;;;;5066263;28;20245;-83
2023/04/21 02:12:29;;;;;;;51.83;34.67;;;8.70;1.00;;;;;;5064302;28;20182;-82
2023/04/21 02:14:57;;;;;;;55.33;33.20;;;8.70;1.00;;;;;;5067051;28;20193;-82
2023/04/21 02:17:23;;;;;;;48.95;33.83;;;8.70;1.00;;;;;;5064424;28;20189;-83
2023/04/21 02:19:51;;;;;;;50.30;32.70;;;8.80;1.00;;;;;;5066836;28;20189;-81
2023/04/21 02:22:17;;;;;;;50.57;34.60;;;8.80;1.00;;;;;;5063080;28;20193;-83
2023/04/21 02:24:45;;;;;;;51.13;32.80;;;8.80;1.00;;;;;;5062814;28;20432;-82
2023/04/21 02:27:10;;;;;;;53.10;35.50;;;8.80;1.00;;;;;;5064854;28;20181;-82
2023/04/21 02:29:38;;;;;;;54.53;33.87;;;8.80;1.00;;;;;;5064013;28;20454;-83
2023/04/21 02:32:04;;;;;;;51.53;34.50;;;8.80;1.00;;;;;;5066996;28;20207;-83
2023/04/21 02:34:29;;;;;;;48.87;33.10;;;8.80;1.00;;;;;;5065131;28;20515;-83
2023/04/21 02:36:58;;;;;;;55.60;35.40;;;8.90;1.00;;;;;;5065876;28;20191;-82
2023/04/21 02:39:24;;;;;;;52.27;34.27;;;8.90;1.00;;;;;;5068220;28;20193;-83
2023/04/21 02:41:50;;;;;;;53.10;35.00;;;9.00;1.00;;;;;;5060990;28;20445;-81
2023/04/21 02:44:18;;;;;;;51.57;34.17;;;9.00;99.90;;;;;;5065696;28;20460;-83
2023/04/21 02:46:44;;;;;;;51.17;34.00;;;9.00;99.90;;;;;;5056078;28;20182;-83
2023/04/21 02:52:17;;;;;;;48.67;34.07;;;9.10;99.90;;;;;;5048842;28;20220;-84
2023/04/21 02:54:43;;;;;;;53.47;35.90;;;9.00;99.90;;;;;;5064141;28;20436;-83
2023/04/21 02:57:08;;;;;;;49.67;33.20;;;9.00;99.90;;;;;;5060365;28;20198;-82
2023/04/21 02:59:36;;;;;;;51.40;35.23;;;9.00;99.90;;;;;;5064186;28;20245;-83
2023/04/21 03:02:02;;;;;;;57.53;35.00;;;8.90;99.90;;;;;;5077223;28;20185;-82
2023/04/21 03:04:28;;;;;;;61.17;37.28;;;8.90;99.90;;;;;;5068860;28;20467;-83
2023/04/21 03:06:54;;;;;;;59.53;38.55;;;8.80;99.90;;;;;;5069193;28;20245;-82
2023/04/21 03:09:20;;;;;;;52.40;34.30;;;8.70;99.90;;;;;;5060990;28;20182;-81
2023/04/21 03:11:45;;;;;;;61.37;38.83;;;8.60;99.90;;;;;;5055111;28;20201;-82
2023/04/21 03:14:11;;;;;;;61.83;37.03;;;8.60;99.90;;;;;;5045975;28;20269;-81
2023/04/21 03:16:36;;;;;;;61.77;38.07;;;8.50;99.90;;;;;;5050211;28;20655;-82
2023/04/21 03:19:02;;;;;;;58.63;35.00;;;8.50;99.90;;;;;;5054985;28;20232;-82
2023/04/21 03:21:30;;;;;;;57.90;37.87;;;8.40;1.00;;;;;;5049602;28;20196;-82
2023/04/21 03:23:56;;;;;;;61.65;37.60;;;8.40;1.00;;;;;;5054464;28;20783;-81
2023/04/21 03:26:21;;;;;;;58.80;38.30;;;8.30;1.00;;;;;;5053683;28;20181;-82
2023/04/21 03:28:47;;;;;;;62.60;39.50;;;8.30;1.00;;;;;;5055019;28;20188;-82
2023/04/21 03:31:13;;;;;;;64.30;39.33;;;8.30;1.00;;;;;;5048226;28;20205;-82
2023/04/21 03:33:38;;;;;;;66.37;40.23;;;8.30;1.00;;;;;;5053639;28;20204;-81
2023/04/21 03:36:04;;;;;;;64.77;39.53;;;8.30;1.00;;;;;;5046440;28;20185;-81
2023/04/21 03:38:29;;;;;;;64.20;37.73;;;8.30;1.00;;;;;;5048811;28;20181;-82
2023/04/21 03:40:55;;;;;;;63.97;40.13;;;8.20;1.00;;;;;;5049842;28;20251;-83
2023/04/21 03:43:21;;;;;;;69.20;41.00;;;8.20;1.00;;;;;;5050163;28;20266;-82
2023/04/21 03:45:46;;;;;;;62.10;39.60;;;8.10;1.00;;;;;;5053238;28;20181;-82
2023/04/21 03:48:12;;;;;;;66.73;39.80;;;8.00;1.00;;;;;;5053669;28;20725;-82
2023/04/21 03:50:37;;;;;;;70.60;39.10;;;8.00;1.00;;;;;;5040680;28;20210;-82
2023/04/21 03:53:03;;;;;;;71.83;40.57;;;8.00;1.00;;;;;;5044068;28;20199;-82
2023/04/21 03:55:28;;;;;;;70.30;40.83;;;7.90;1.00;;;;;;5047634;28;20186;-82
2023/04/21 03:57:54;;;;;;;72.10;41.43;;;7.80;1.00;;;;;;5036851;28;20190;-82
2023/04/21 04:00:20;;;;;;;77.90;42.40;;;7.80;1.00;;;;;;5038156;28;20182;-80
2023/04/21 04:02:45;;;;;;;72.07;40.80;;;7.80;1.00;;;;;;5051736;28;20205;-82
2023/04/21 04:05:11;;;;;;;83.50;43.80;;;7.70;1.00;;;;;;5054134;28;20197;-82
2023/04/21 04:07:37;;;;;;;74.33;42.80;;;7.70;1.00;;;;;;5054767;28;20205;-80
2023/04/21 04:10:03;;;;;;;75.53;41.53;;;7.60;1.00;;;;;;5047882;28;20209;-82
2023/04/21 04:12:29;;;;;;;82.35;43.05;;;7.60;1.00;;;;;;5052801;28;20205;-81
2023/04/21 04:14:55;;;;;;;75.50;41.25;;;7.60;1.00;;;;;;5052578;28;20185;-82
2023/04/21 04:17:20;;;;;;;73.80;41.60;;;7.50;1.00;;;;;;5050736;28;20177;-81
2023/04/21 04:19:46;;;;;;;77.00;42.70;;;7.50;1.00;;;;;;5054019;28;20185;-82
2023/04/21 04:22:12;;;;;;;81.97;40.43;;;7.40;1.00;;;;;;5055719;28;20261;-82
2023/04/21 04:24:38;;;;;;;70.18;41.47;;;7.40;1.00;;;;;;5057690;28;20259;-82
2023/04/21 04:27:04;;;;;;;71.27;40.33;;;7.40;1.00;;;;;;5056443;28;20276;-82
2023/04/21 04:29:30;;;;;;;81.45;41.10;;;7.40;1.00;;;;;;5053183;28;20192;-82
2023/04/21 04:31:56;;;;;;;73.78;40.85;;;7.40;1.00;;;;;;5054040;28;20251;-82
2023/04/21 04:34:22;;;;;;;67.13;39.08;;;7.40;1.00;;;;;;5054757;28;20224;-82
2023/04/21 04:36:49;;;;;;;80.40;40.10;;;7.40;1.00;;;;;;5053649;28;20182;-82
2023/04/21 04:39:16;;;;;;;60.97;37.95;;;7.40;1.00;;;;;;5052954;28;20204;-82
2023/04/21 04:41:41;;;;;;;62.72;37.97;;;7.40;1.00;;;;;;5055838;28;20190;-81
2023/04/21 04:44:07;;;;;;;59.37;37.97;;;7.50;1.00;;;;;;5051109;28;20206;-82
2023/04/21 04:46:33;;;;;;;67.55;37.53;;;7.50;1.00;;;;;;5054407;28;20177;-82
2023/04/21 04:49:00;;;;;;;54.33;33.80;;;7.50;1.00;;;;;;5054102;28;20186;-81
2023/04/21 04:51:25;;;;;;;67.82;39.35;;;7.50;1.00;;;;;;5056804;28;20209;-82
2023/04/21 04:53:51;;;;;;;58.23;36.20;;;7.60;1.00;;;;;;5063458;28;20185;-82
2023/04/21 04:56:16;;;;;;;58.33;38.13;;;7.60;1.00;;;;;;5062240;28;20174;-83
2023/04/21 04:58:45;;;;;;;61.80;38.50;;;7.70;1.00;;;;;;5064326;28;20243;-83
2023/04/21 05:01:14;;;;;;;56.55;37.30;;;7.80;1.00;;;;;;5068156;28;20208;-83
2023/04/21 05:03:40;;;;;;;62.08;35.95;;;7.90;1.00;;;;;;5062619;28;20212;-82
2023/04/21 05:06:06;;;;;;;57.10;35.90;;;7.90;1.00;;;;;;5069097;28;20256;-82
2023/04/21 05:08:31;;;;;;;53.50;36.23;;;8.00;1.00;;;;;;5068073;28;20444;-82
2023/04/21 05:10:57;;;;;;;53.57;36.30;;;8.00;1.00;;;;;;5062019;28;20213;-82
2023/04/21 05:13:23;;;;;;;63.83;34.07;;;8.10;1.00;;;;;;5067422;28;20228;-83
2023/04/21 05:15:48;;;;;;;53.47;34.20;;;8.10;1.00;;;;;;5066509;28;20440;-82
2023/04/21 05:18:14;;;;;;;56.23;33.97;;;8.20;1.00;;;;;;5067846;28;20181;-82
2023/04/21 05:20:42;;;;;;;50.13;31.77;;;8.30;1.00;;;;;;5052986;28;20693;-83
2023/04/21 05:23:08;;;;;;;52.63;31.92;;;8.40;1.00;;;;;;5053635;28;20214;-82
2023/04/21 05:25:33;;;;;;;56.63;33.07;;;8.60;99.90;;;;;;5062337;28;20360;-82
2023/04/21 05:27:59;;;;;;;50.67;31.37;;;8.60;99.90;;;;;;5044627;28;20178;-82
2023/04/21 05:30:24;;;;;;;47.50;30.70;;;8.70;99.90;;;;;;5051758;28;20183;-83
2023/04/21 05:32:50;;;;;;;47.87;31.73;;;8.80;99.90;;;;;;5063809;28;20228;-82
2023/04/21 05:35:16;;;;;;;45.10;30.40;;;9.60;99.90;;;;;;5068028;28;20529;-81
2023/04/21 05:37:41;;;;;;;36.97;26.50;;;12.00;1.00;;;;;;5060797;28;20431;-82
2023/04/21 05:40:07;;;;;;;35.57;27.00;;;14.40;1.00;;;;;;5058270;28;20181;-82
2023/04/21 05:42:33;;;;;;;30.97;25.53;;;16.20;1.00;;;;;;5049525;28;20220;-83
2023/04/21 05:44:58;;;;;;;30.20;24.27;;;17.70;99.90;;;;;;5049273;28;20189;-82
2023/04/21 05:47:24;;;;;;;29.40;24.67;;;19.20;99.90;;;;;;5047597;28;20193;-83
2023/04/21 05:49:53;;;;;;;29.27;25.47;;;20.50;99.90;;;;;;5049433;28;20182;-83
2023/04/21 05:52:20;;;;;;;25.97;23.20;;;21.30;99.90;;;;;;5048251;28;20224;-83
2023/04/21 05:54:46;;;;;;;29.70;23.67;;;22.30;99.90;;;;;;5055364;28;20485;-83
2023/04/21 05:57:11;;;;;;;24.53;21.93;;;23.30;99.90;;;;;;5054881;28;20962;-83
2023/04/21 05:59:37;;;;;;;28.07;25.37;;;24.20;99.90;;;;;;5048622;28;20182;-83
2023/04/21 06:02:02;;;;;;;28.30;25.40;;;25.00;99.90;;;;;;5046350;28;20240;-81
2023/04/21 06:04:28;;;;;;;27.37;24.67;;;25.30;99.90;;;;;;5053755;28;20210;-80
2023/04/21 06:06:53;;;;;;;24.70;22.17;;;27.30;99.90;;;;;;5060998;28;20190;-80
2023/04/21 06:09:19;;;;;;;25.37;22.97;;;29.70;99.90;;;;;;5057018;28;20200;-80
2023/04/21 06:11:45;;;;;;;24.47;22.27;;;31.60;99.90;;;;;;5059946;28;20220;-80
2023/04/21 06:14:10;;;;;;;24.10;21.90;;;33.10;99.90;;;;;;5065177;28;20212;-81
2023/04/21 06:16:36;;;;;;;23.47;21.30;;;34.30;99.90;;;;;;5069951;28;20401;-81
2023/04/21 06:19:01;;;;;;;22.30;20.43;;;35.60;99.90;;;;;;5066375;28;20249;-82
2023/04/21 06:21:27;;;;;;;20.30;18.70;;;37.30;99.90;;;;;;5059042;28;20190;-82
2023/04/21 06:23:52;;;;;;;21.83;20.17;;;38.90;99.90;;;;;;5061109;28;22417;-82
2023/04/21 06:26:18;;;;;;;19.73;18.13;;;39.40;99.90;;;;;;5065630;28;20189;-81
2023/04/21 06:28:44;;;;;;;20.60;19.00;;;40.90;99.90;;;;;;5066726;28;20186;-82
2023/04/21 06:31:14;;;;;;;21.07;19.47;;;41.70;99.90;;;;;;5067437;28;20220;-82
2023/04/21 06:33:39;;;;;;;20.70;19.20;;;42.10;99.90;;;;;;5062929;28;20194;-82
2023/04/21 06:36:05;;;;;;;20.20;18.50;;;42.10;99.90;;;;;;5062317;28;20445;-82
2023/04/21 06:38:31;;;;;;;20.50;18.83;;;41.90;99.90;;;;;;5063710;28;20189;-81
2023/04/21 06:40:56;;;;;;;18.10;16.60;;;42.20;99.90;;;;;;5067436;28;20213;-81
2023/04/21 06:43:22;;;;;;;19.60;18.20;;;42.90;99.90;;;;;;5064505;28;20209;-81
2023/04/21 06:45:47;;;;;;;18.77;17.30;;;43.20;99.90;;;;;;5052916;28;20182;-82
2023/04/21 06:48:13;;;;;;;19.03;17.53;;;43.10;99.90;;;;;;5053693;28;20169;-82
2023/04/21 06:50:38;;;;;;;18.73;17.30;;;42.90;99.90;;;;;;5058919;28;20240;-82
2023/04/21 06:53:04;;;;;;;17.63;16.40;;;43.20;99.90;;;;;;5052121;28;20198;-81
2023/04/21 06:55:29;;;;;;;16.80;15.53;;;43.30;99.90;;;;;;5060507;28;20182;-82
2023/04/21 06:57:55;;;;;;;18.00;16.60;;;43.60;99.90;;;;;;5052300;28;20189;-81
2023/04/21 07:00:21;;;;;;;17.50;16.30;;;43.40;99.90;;;;;;5057712;28;20221;-82
2023/04/21 07:02:47;;;;;;;18.47;17.17;;;43.50;99.90;;;;;;5052061;28;20313;-81
2023/04/21 07:05:12;;;;;;;19.73;18.20;;;43.20;99.90;;;;;;5052145;28;20433;-82
2023/04/21 07:07:38;;;;;;;17.37;15.83;;;43.40;99.90;;;;;;5067365;28;20192;-81
2023/04/21 07:10:04;;;;;;;17.87;16.57;;;43.30;99.90;;;;;;5062148;28;20217;-81
2023/04/21 07:12:29;;;;;;;18.07;16.77;;;43.10;99.90;;;;;;5067508;28;20224;-81
2023/04/21 07:14:56;;;;;;;16.73;15.50;;;43.00;99.90;;;;;;5067377;28;20212;-82
2023/04/21 07:17:21;;;;;;;15.40;14.30;;;42.70;99.90;;;;;;5066329;28;20440;-82
2023/04/21 07:19:47;;;;;;;18.53;17.23;;;42.50;99.90;;;;;;5082646;28;20201;-82
2023/04/21 07:22:12;;;;;;;17.10;15.87;;;42.00;99.90;;;;;;5062702;28;20249;-82
2023/04/21 07:24:38;;;;;;;16.07;14.67;;;41.90;99.90;;;;;;5068797;28;20205;-81
2023/04/21 07:27:03;;;;;;;16.33;15.03;;;42.10;99.90;;;;;;5065302;28;20185;-82
2023/04/21 07:29:29;;;;;;;16.57;15.37;;;42.30;99.90;;;;;;5068484;28;20193;-82
2023/04/21 07:31:55;;;;;;;17.07;15.87;;;42.10;99.90;;;;;;5066928;28;20271;-81
2023/04/21 07:34:21;;;;;;;18.30;17.00;;;41.80;99.90;;;;;;5065942;28;20216;-82
2023/04/21 07:36:46;;;;;;;17.50;16.30;;;41.70;99.50;;;;;;5069251;28;20192;-82
2023/04/21 07:39:12;;;;;;;16.57;15.20;;;41.20;98.50;;;;;;5068039;28;20826;-82
2023/04/21 07:41:38;;;;;;;16.87;15.57;;;41.40;98.80;;;;;;5068457;28;20192;-82
2023/04/21 07:44:03;;;;;;;18.50;17.20;;;41.80;98.10;;;;;;5065505;28;20263;-82
2023/04/21 07:46:30;;;;;;;16.53;15.40;;;41.50;97.60;;;;;;5061613;28;20263;-82
2023/04/21 07:48:58;;;;;;;19.80;18.40;;;41.90;98.00;;;;;;5062546;28;20196;-81
2023/04/21 07:51:24;;;;;;;18.47;16.80;;;41.50;96.70;;;;;;5062934;28;20486;-81
2023/04/21 07:53:50;;;;;;;18.30;16.83;;;41.60;96.80;;;;;;5057267;28;20653;-81
2023/04/21 07:56:16;;;;;;;18.90;17.50;;;41.80;97.00;;;;;;5068966;28;20436;-82
2023/04/21 07:58:41;;;;;;;17.00;15.67;;;42.30;97.40;;;;;;5071741;28;20436;-82
2023/04/21 08:01:07;;;;;;;17.93;16.47;;;42.40;97.40;;;;;;5070288;28;20186;-82
2023/04/21 08:03:32;;;;;;;18.23;16.60;;;42.60;96.40;;;;;;5057196;28;20205;-82
2023/04/21 08:06:00;;;;;;;16.97;15.80;;;42.70;99.90;;;;;;5054053;28;20186;-82
2023/04/21 08:08:33;;;;;;;18.07;16.77;;;42.40;95.70;;;;;;5055330;28;20166;-81
2023/04/21 08:10:59;;;;;;;17.13;15.73;;;40.70;92.90;;;;;;5053160;28;20500;-81
2023/04/21 08:13:24;;;;;;;17.00;15.80;;;39.20;91.70;;;;;;5081778;22;20508;-81
2023/04/21 08:15:54;;;;;;;17.80;16.47;;;39.10;92.80;;;;;;5051035;28;20185;-82
2023/04/21 08:18:20;;;;;;;19.23;17.73;;;36.60;85.40;;;;;;5051255;28;20397;-82
2023/04/21 08:20:48;;;;;;;19.83;18.13;;;36.70;89.50;;;;;;5050860;28;20436;-82
2023/04/21 08:23:15;;;;;;;20.00;18.37;;;37.20;91.10;;;;;;5058477;28;20464;-82
2023/04/21 08:25:40;;;;;;;18.87;17.47;;;38.60;94.10;;;;;;5072701;28;20447;-81
2023/04/21 08:28:06;;;;;;;18.67;17.17;;;37.90;92.20;;;;;;5066520;28;20431;-82
2023/04/21 08:30:32;;;;;;;17.93;16.60;;;38.60;93.80;;;;;;5070392;28;20157;-82
2023/04/21 08:32:57;;;;;;;17.43;16.10;;;38.90;94.40;;;;;;5069812;28;20205;-82
2023/04/21 08:35:23;;;;;;;18.00;16.60;;;39.50;96.00;;;;;;5071231;28;20424;-82
2023/04/21 08:37:49;;;;;;;18.40;16.90;;;39.90;95.20;;;;;;5069963;28;20192;-82
2023/04/21 08:40:15;;;;;;;19.30;17.90;;;39.00;93.40;;;;;;5071277;28;20439;-82
2023/04/21 08:42:41;;;;;;;21.03;19.33;;;38.50;93.00;;;;;;5072704;28;20867;-82
2023/04/21 08:45:07;;;;;;;21.23;19.43;;;35.50;84.20;;;;;;5067313;28;20526;-81
2023/04/21 08:47:33;;;;;;;20.00;18.40;;;34.60;84.50;;;;;;5064631;28;20213;-81
2023/04/21 08:49:59;;;;;;;20.30;18.70;;;35.10;89.20;;;;;;5064733;28;20511;-82
2023/04/21 08:52:24;;;;;;;22.07;20.07;;;36.00;92.30;;;;;;5060836;28;20543;-81
2023/04/21 08:54:50;;;;;;;19.83;18.13;;;36.40;92.60;;;;;;5067958;28;20196;-81
2023/04/21 08:57:16;;;;;;;19.50;17.90;;;37.30;94.60;;;;;;5056429;28;20189;-82
2023/04/21 08:59:42;;;;;;;19.50;18.00;;;37.70;95.00;;;;;;5059405;28;20436;-82
2023/04/21 09:02:16;;;;;;;19.60;18.00;;;37.70;95.00;;;;;;5056958;28;20189;-81
2023/04/21 09:04:47;;;;;;;19.23;17.43;;;36.40;92.30;;;;;;5057212;28;20451;-81
2023/04/21 09:07:30;;;;;;;20.87;19.23;;;34.90;90.00;;;;;;5054664;28;20539;-81
2023/04/21 09:09:56;;;;;;;22.27;20.37;;;33.10;84.00;;;;;;5062312;28;20446;-81
2023/04/21 09:12:22;;;;;;;22.60;20.60;;;30.50;99.90;;;;;;5067011;28;20503;-81
2023/04/21 09:14:48;;;;;;;21.50;19.50;;;30.10;79.90;;;;;;5070605;28;20439;-81
2023/04/21 09:17:16;;;;;;;21.07;19.20;;;31.40;90.00;;;;;;5068875;28;20443;-81
2023/04/21 09:19:42;;;;;;;21.77;19.77;;;31.10;90.30;;;;;;5070712;28;20428;-81
2023/04/21 09:22:07;;;;;;;21.63;19.67;;;30.90;90.40;;;;;;5066633;28;20451;-81
2023/04/21 09:24:33;;;;;;;21.30;19.20;;;30.90;91.30;;;;;;5067569;28;20230;-82
2023/04/21 09:27:02;;;;;;;21.80;19.80;;;31.00;92.10;;;;;;5070174;28;20217;-81
2023/04/21 09:29:28;;;;;;;21.77;19.80;;;32.20;95.00;;;;;;5067821;28;20185;-82
2023/04/21 09:31:53;;;;;;;22.20;20.30;;;33.30;98.20;;;;;;5066682;28;20485;-82
2023/04/21 09:34:24;;;;;;;22.37;20.47;;;33.90;99.10;;;;;;5070841;28;20475;-82
2023/04/21 09:37:00;;;;;;;23.33;21.13;;;34.20;99.70;;;;;;5069442;28;20186;-82
2023/04/21 09:39:26;;;;;;;19.73;18.13;;;34.50;99.90;;;;;;5065713;28;20474;-82
2023/04/21 09:41:51;;;;;;;17.77;16.40;;;35.00;99.90;;;;;;5065892;28;20428;-82
2023/04/21 09:44:17;;;;;;;17.40;15.87;;;35.40;99.90;;;;;;5069364;28;20534;-82
2023/04/21 09:46:47;;;;;;;17.73;16.23;;;35.70;99.90;;;;;;5068270;28;20207;-82
2023/04/21 09:49:15;;;;;;;16.50;15.10;;;35.60;99.90;;;;;;5068697;28;20181;-82
2023/04/21 09:51:42;;;;;;;19.70;17.70;;;35.40;99.90;;;;;;5070815;28;20459;-82
2023/04/21 09:54:14;;;;;;;18.67;17.07;;;35.10;99.90;;;;;;5061045;28;20452;-82
2023/04/21 09:56:41;;;;;;;17.47;15.87;;;33.20;96.30;;;;;;5063188;28;20432;-81
2023/04/21 09:59:15;;;;;;;17.13;15.60;;;31.60;92.90;;;;;;5071918;28;20448;-83
2023/04/21 10:01:42;;;;;;;14.63;13.40;;;30.60;91.30;;;;;;5070597;28;20439;-82
2023/04/21 10:04:07;;;;;;;13.70;12.53;;;30.70;92.20;;;;;;5070197;28;20462;-82
2023/04/21 10:06:33;;;;;;;16.47;15.07;;;31.40;95.60;;;;;;5068894;28;20428;-82
2023/04/21 10:09:00;;;;;;;17.50;16.00;;;31.60;96.10;;;;;;5069481;28;20193;-82
2023/04/21 10:11:25;;;;;;;15.80;14.40;;;29.90;91.70;;;;;;5070243;28;20277;-82
2023/04/21 10:13:51;;;;;;;14.43;13.03;;;30.10;99.90;;;;;;5068653;28;20468;-82
2023/04/21 10:16:18;;;;;;;12.77;11.47;;;30.50;94.70;;;;;;5068638;28;20261;-82
2023/04/21 10:18:45;;;;;;;12.33;11.30;;;30.90;95.40;;;;;;5069160;28;20188;-81
2023/04/21 10:21:12;;;;;;;13.20;12.00;;;31.50;96.40;;;;;;5070495;28;20477;-82
2023/04/21 10:23:48;;;;;;;14.77;13.57;;;32.20;98.30;;;;;;5062556;28;20548;-82
2023/04/21 10:26:21;;;;;;;14.67;13.30;;;32.90;99.90;;;;;;5058510;28;20428;-81
2023/04/21 10:28:53;;;;;;;12.70;11.60;;;32.80;99.50;;;;;;5058550;28;20440;-82
2023/04/21 10:31:25;;;;;;;12.90;10.77;;;33.50;99.90;;;;;;5058305;28;20460;-82
2023/04/21 10:34:06;;;;;;;11.70;10.63;;;33.90;99.90;;;;;;5060374;28;20474;-83
2023/04/21 10:36:45;;;;;;;10.17;9.27;;;34.00;99.90;;;;;;5064256;28;20506;-82
2023/04/21 10:39:23;;;;;;;13.40;12.23;;;33.50;98.10;;;;;;5051786;28;20913;-83
2023/04/21 10:41:50;;;;;;;13.70;12.43;;;33.20;97.70;;;;;;5058875;28;20448;-82
2023/04/21 10:44:16;;;;;;;13.60;12.40;;;33.10;97.40;;;;;;5056954;28;20448;-83
2023/04/21 10:46:52;;;;;;;14.17;12.97;;;32.70;96.60;;;;;;5059211;28;20436;-82
2023/04/21 10:49:28;;;;;;;15.97;14.57;;;31.20;94.10;;;;;;5064521;28;20432;-82
2023/04/21 10:52:06;;;;;;;15.50;14.10;;;29.40;90.30;;;;;;5057089;28;20911;-81
2023/04/21 10:54:48;;;;;;;18.60;16.77;;;;;;;;;;5059482;28;20462;-82
2023/04/21 10:57:18;;;;;;;16.07;14.47;;;26.70;63.50;;;;;;5059477;28;20424;-82
2023/04/21 10:59:46;;;;;;;13.93;12.63;;;26.60;82.00;;;;;;5060306;28;20439;-81
2023/04/21 11:02:14;;;;;;;13.60;12.20;;;26.60;83.30;;;;;;5054007;28;20478;-82
2023/04/21 11:04:46;;;;;;;13.40;12.10;;;27.50;89.30;;;;;;5059718;28;20466;-82
2023/04/21 11:07:13;;;;;;;13.40;12.10;;;28.10;91.70;;;;;;5058975;28;20443;-81
2023/04/21 11:09:40;;;;;;;14.80;13.37;;;28.10;92.00;;;;;;5054742;28;20957;-82
2023/04/21 11:12:10;;;;;;;12.37;11.27;;;27.20;90.60;;;;;;5057055;28;20480;-82
2023/04/21 11:14:38;;;;;;;14.33;12.93;;;26.60;87.40;;;;;;5057352;28;20480;-82
2023/04/21 11:17:04;;;;;;;14.20;12.83;;;26.40;87.70;;;;;;5064072;28;20486;-82
2023/04/21 11:19:33;;;;;;;15.50;13.93;;;26.80;91.40;;;;;;5053608;28;20471;-81
2023/04/21 11:21:58;;;;;;;12.37;11.37;;;26.50;91.60;;;;;;5056126;28;20431;-81
2023/04/21 11:24:24;;;;;;;16.37;14.87;;;25.60;90.00;;;;;;5054876;28;20829;-81
2023/04/21 11:26:50;;;;;;;15.00;13.50;;;25.10;88.40;;;;;;5053837;28;20300;-81
2023/04/21 11:29:16;;;;;;;16.13;13.90;;;25.80;91.70;;;;;;5053384;28;20181;-82
2023/04/21 11:31:45;;;;;;;15.80;14.30;;;25.40;91.60;;;;;;5053573;28;20595;-81
2023/04/21 11:34:11;;;;;;;14.90;13.37;;;24.50;89.20;;;;;;5055086;28;20212;-81
2023/04/21 11:36:39;;;;;;;15.30;13.80;;;24.00;88.60;;;;;;5054518;28;20428;-81
2023/04/21 11:39:09;;;;;;;14.73;13.13;;;24.60;91.90;;;;;;5054570;28;20189;-82
2023/04/21 11:41:37;;;;;;;13.80;12.43;;;25.30;94.60;;;;;;5055742;28;20696;-82
2023/04/21 11:44:03;;;;;;;13.67;12.37;;;26.10;97.00;;;;;;5049396;28;20479;-81
2023/04/21 11:46:28;;;;;;;12.20;11.00;;;26.60;97.20;;;;;;5050636;28;20432;-81
2023/04/21 11:48:59;;;;;;;14.23;12.77;;;27.20;98.80;;;;;;5052123;28;20181;-82
2023/04/21 11:51:24;;;;;;;14.30;12.90;;;27.50;99.40;;;;;;5047671;28;20243;-81
2023/04/21 11:53:50;;;;;;;14.77;13.47;;;27.50;99.60;;;;;;5053454;28;20443;-82
2023/04/21 11:56:22;;;;;;;15.30;13.33;;;27.80;99.90;;;;;;5056173;28;20183;-82
2023/04/21 11:58:51;;;;;;;13.67;12.30;;;28.00;99.90;;;;;;5061348;28;20174;-82
2023/04/21 12:01:19;;;;;;;14.70;13.20;;;28.20;99.90;;;;;;5063420;28;20432;-82
2023/04/21 12:03:55;;;;;;;14.60;13.03;;;28.10;99.90;;;;;;5051338;28;20452;-82
2023/04/21 12:06:27;;;;;;;12.77;11.50;;;28.10;99.90;;;;;;5053980;28;20450;-82
2023/04/21 12:09:01;;;;;;;13.93;11.70;;;28.30;99.90;;;;;;5058606;28;20499;-82
2023/04/21 12:11:30;;;;;;;13.70;12.40;;;28.60;99.90;;;;;;5065043;28;20468;-83
2023/04/21 12:13:57;;;;;;;13.20;11.80;;;28.50;99.90;;;;;;5065368;28;20482;-83
2023/04/21 12:16:27;;;;;;;11.90;10.70;;;28.20;99.90;;;;;;5065813;28;20992;-82
2023/04/21 12:18:54;;;;;;;14.97;12.07;;;27.80;99.10;;;;;;5053734;28;20458;-82
2023/04/21 12:21:20;;;;;;;11.33;10.23;;;27.60;98.70;;;;;;5064613;28;20508;-82
2023/04/21 12:23:45;;;;;;;14.83;11.17;;;27.50;98.80;;;;;;5057467;28;20475;-82
2023/04/21 12:26:11;;;;;;;14.00;12.27;;;27.70;99.40;;;;;;5047745;28;20566;-82
2023/04/21 12:28:38;;;;;;;14.07;10.30;;;27.60;99.80;;;;;;5065745;28;20208;-82
2023/04/21 12:31:04;;;;;;;14.20;12.90;;;27.40;99.40;;;;;;5056211;28;20225;-82
2023/04/21 12:33:30;;;;;;;14.97;11.87;;;27.10;98.30;;;;;;5067706;28;20463;-82
2023/04/21 12:35:55;;;;;;;10.97;9.90;;;27.00;98.10;;;;;;5065689;28;20447;-82